createdAt,value
2019-05-17T00:03:13.490Z,80.4
2019-05-17T00:08:13.716Z,80.7
2019-05-17T00:13:14.625Z,81.2
2019-05-17T00:18:17.031Z,81.1
2019-05-17T00:23:14.013Z,81
2019-05-17T00:28:16.387Z,81.1
2019-05-17T00:33:17.379Z,81.4
2019-05-17T00:38:17.837Z,81.1
2019-05-17T00:43:16.871Z,81.5
2019-05-17T00:48:17.102Z,81.8
2019-05-17T00:53:16.453Z,82.1
2019-05-17T00:58:17.172Z,82
2019-05-17T01:03:16.229Z,82.2
2019-05-17T01:13:17.114Z,82.5
2019-05-17T01:18:16.222Z,82.6
2019-05-17T01:23:16.607Z,82.7
2019-05-17T01:28:16.364Z,82.9
2019-05-17T01:33:17.064Z,83.1
2019-05-17T01:38:17.528Z,83.2
2019-05-17T01:43:16.615Z,83.3
2019-05-17T01:48:16.476Z,83.3
2019-05-17T01:53:16.744Z,83.5
2019-05-17T01:58:16.544Z,83.2
2019-05-17T02:03:17.295Z,83.5
2019-05-17T02:08:17.047Z,83.8
2019-05-17T02:13:16.617Z,83.5
2019-05-17T02:18:17.323Z,83.6
2019-05-17T02:23:17.367Z,83.6
2019-05-17T02:28:16.569Z,83.2
2019-05-17T02:33:16.487Z,83.2
2019-05-17T02:38:16.559Z,83.4
2019-05-17T02:43:16.567Z,83.4
2019-05-17T02:48:16.561Z,83.6
2019-05-17T02:53:16.622Z,82.7
2019-05-17T02:58:16.816Z,83.1
2019-05-17T03:03:16.801Z,83.3
2019-05-17T03:08:16.929Z,83.7
2019-05-17T03:18:23.221Z,83.9
2019-05-17T03:23:24.390Z,84.1
2019-05-17T03:28:24.345Z,84.3
2019-05-17T03:33:26.381Z,84.3
2019-05-17T03:38:24.316Z,84.3
2019-05-17T03:43:24.287Z,84.3
2019-05-17T03:48:24.352Z,84.3
2019-05-17T03:53:24.303Z,84.4
2019-05-17T03:58:24.297Z,84.5
2019-05-17T04:03:30.872Z,84.2
2019-05-17T04:08:26.954Z,84.3
2019-05-17T04:13:33.705Z,84.6
2019-05-17T04:18:33.584Z,84.7
2019-05-17T04:23:33.807Z,84.5
2019-05-17T04:28:33.471Z,84.5
2019-05-17T04:33:33.562Z,84.6
2019-05-17T04:38:33.243Z,84.8
2019-05-17T04:43:33.548Z,84.9
2019-05-17T04:48:32.930Z,85.1
2019-05-17T04:53:42.976Z,84.8
2019-05-17T05:03:54.841Z,84.5
2019-05-17T05:08:55.882Z,85
2019-05-17T05:13:55.868Z,85.2
2019-05-17T05:19:05.614Z,85.2
2019-05-17T05:24:13.406Z,85.2
2019-05-17T05:29:13.271Z,85.4
2019-05-17T05:34:13.831Z,85.4
2019-05-17T05:39:13.814Z,85.4
2019-05-17T05:44:14.008Z,85.5
2019-05-17T05:49:14.032Z,85.7
2019-05-17T05:54:14.093Z,85.4
2019-05-17T05:59:14.021Z,85.3
2019-05-17T06:04:14.189Z,85.4
2019-05-17T06:09:14.071Z,85.6
2019-05-17T06:14:14.081Z,85.7
2019-05-17T06:19:14.099Z,85.8
2019-05-17T06:24:18.515Z,85.8
2019-05-17T06:29:35.579Z,86
2019-05-17T06:34:37.832Z,86
2019-05-17T06:39:38.215Z,86.1
2019-05-17T06:44:38.116Z,86
2019-05-17T06:49:38.108Z,86.2
2019-05-17T06:54:38.362Z,85.9
2019-05-17T06:59:38.537Z,85.8
2019-05-17T07:04:39.482Z,85.9
2019-05-17T07:09:40.051Z,86
2019-05-17T07:14:40.081Z,85.9
2019-05-17T07:19:40.018Z,86.1
2019-05-17T07:24:39.659Z,85.9
2019-05-17T07:29:40.309Z,85.9
2019-05-17T07:34:40.082Z,85.5
2019-05-17T07:39:40.047Z,85.6
2019-05-17T07:44:40.224Z,85.9
2019-05-17T07:49:40.433Z,86
2019-05-17T07:54:39.874Z,86
2019-05-17T07:59:40.463Z,86
2019-05-17T08:04:40.731Z,86.1
2019-05-17T08:09:40.540Z,86.2
2019-05-17T08:14:40.520Z,86.3
2019-05-17T08:19:40.479Z,85.9
2019-05-17T08:24:40.480Z,86.3
2019-05-17T08:29:40.509Z,86.3
2019-05-17T08:34:40.435Z,86.5
2019-05-17T08:39:40.457Z,86.4
2019-05-17T08:44:40.726Z,85.9
2019-05-17T08:49:40.700Z,86.4
2019-05-17T08:54:42.873Z,86.2
2019-05-17T08:59:41.194Z,86.4
2019-05-17T09:04:41.228Z,85.9
2019-05-17T09:09:41.221Z,85.6
2019-05-17T09:14:41.204Z,85.8
2019-05-17T09:19:42.289Z,86.3
2019-05-17T09:24:43.110Z,86.5
2019-05-17T09:29:44.247Z,86.6
2019-05-17T09:34:44.699Z,86.2
2019-05-17T09:39:44.190Z,85.7
2019-05-17T09:44:44.463Z,85.1
2019-05-17T09:49:44.579Z,84.7
2019-05-17T09:54:45.379Z,84.5
2019-05-17T09:59:44.496Z,82.6
2019-05-17T10:04:46.154Z,82.9
2019-05-17T10:09:46.110Z,82.8
2019-05-17T10:14:46.180Z,82.4
2019-05-17T10:19:46.119Z,81.7
2019-05-17T10:24:46.140Z,82.4
2019-05-17T10:29:46.467Z,81.9
2019-05-17T10:34:46.375Z,81.5
2019-05-17T10:39:46.912Z,81.8
2019-05-17T10:44:51.051Z,81.8
2019-05-17T10:49:49.603Z,81.3
2019-05-17T10:54:48.512Z,81.3
2019-05-17T10:59:50.523Z,81
2019-05-17T11:04:51.005Z,80.7
2019-05-17T11:09:52.290Z,80.6
2019-05-17T11:15:08.131Z,80.1
2019-05-17T11:19:55.307Z,80.3
2019-05-17T11:25:00.057Z,79.2
2019-05-17T11:30:01.077Z,77.5
2019-05-17T11:35:03.605Z,78.8
2019-05-17T11:40:08.560Z,78.7
2019-05-17T11:45:08.649Z,77.7
2019-05-17T11:50:13.891Z,76.6
2019-05-17T11:55:12.428Z,76.2
2019-05-17T12:00:14.609Z,75.6
2019-05-17T12:05:44.807Z,75.8
2019-05-17T12:10:29.631Z,74.9
2019-05-17T12:15:22.041Z,74.4
2019-05-17T12:20:21.968Z,73.3
2019-05-17T12:25:21.959Z,71.2
2019-05-17T12:30:26.109Z,71.8
2019-05-17T12:35:26.409Z,70.7
2019-05-17T12:40:26.895Z,70.2
2019-05-17T12:45:27.952Z,68.4
2019-05-17T12:50:27.894Z,66.4
2019-05-17T12:55:27.971Z,67.4
2019-05-17T13:00:27.937Z,67.5
2019-05-17T13:05:27.936Z,66.8
2019-05-17T13:10:27.969Z,65.6
2019-05-17T13:15:30.366Z,65.8
2019-05-17T13:20:30.411Z,61.7
2019-05-17T13:25:30.590Z,63.4
2019-05-17T13:30:35.231Z,62.7
2019-05-17T13:35:46.928Z,62.5
2019-05-17T13:40:56.247Z,60.9
2019-05-17T13:45:57.816Z,61.9
2019-05-17T13:50:58.384Z,61.1
2019-05-17T13:55:58.536Z,60.8
2019-05-17T14:00:58.452Z,60.2
2019-05-17T14:06:00.571Z,60.3
2019-05-17T14:11:00.510Z,60.1
2019-05-17T14:16:00.632Z,59.7
2019-05-17T14:21:00.571Z,60
2019-05-17T14:26:01.204Z,59.6
2019-05-17T14:31:01.414Z,58.5
2019-05-17T14:36:01.290Z,59.2
2019-05-17T14:41:06.166Z,59.2
2019-05-17T14:46:02.304Z,60.7
2019-05-17T14:51:03.182Z,59.6
2019-05-17T14:56:04.046Z,58.6
2019-05-17T15:01:05.971Z,56.2
2019-05-17T15:06:14.359Z,57.7
2019-05-17T15:11:14.185Z,57.7
2019-05-17T15:16:14.389Z,56.6
2019-05-17T15:21:32.803Z,56.1
2019-05-17T15:26:27.843Z,55.2
2019-05-17T15:31:39.659Z,54.1
2019-05-17T15:36:40.586Z,54.8
2019-05-17T15:41:42.019Z,56
2019-05-17T15:46:44.653Z,55.6
2019-05-17T15:52:03.548Z,55.5
2019-05-17T15:56:47.918Z,55.4
2019-05-17T16:01:47.990Z,55.8
2019-05-17T16:06:48.050Z,56.8
2019-05-17T16:11:47.979Z,56.6
2019-05-17T16:16:47.956Z,56.1
2019-05-17T16:21:49.821Z,56.6
2019-05-17T16:26:48.233Z,56.1
2019-05-17T16:31:48.315Z,57.2
2019-05-17T16:36:48.228Z,57.1
2019-05-17T16:41:48.257Z,57.3
2019-05-17T16:46:48.498Z,57.7
2019-05-17T16:51:50.825Z,56.7
2019-05-17T16:56:51.081Z,57.1
2019-05-17T17:01:51.141Z,57
2019-05-17T17:06:52.162Z,57.5
2019-05-17T17:16:52.430Z,58
2019-05-17T17:21:57.706Z,57.3
2019-05-17T17:26:57.828Z,57.6
2019-05-17T17:31:58.408Z,57.5
2019-05-17T17:36:58.958Z,58.2
2019-05-17T17:41:58.653Z,58.5
2019-05-17T17:47:14.316Z,58.6
2019-05-17T17:52:26.656Z,58.8
2019-05-17T17:57:25.061Z,59.3
2019-05-17T18:02:27.877Z,59.7
2019-05-17T18:07:26.059Z,60
2019-05-17T18:12:27.130Z,60.6
2019-05-17T18:17:25.958Z,61.1
2019-05-17T18:22:26.187Z,61.3
2019-05-17T18:27:26.150Z,61.7
2019-05-17T18:32:25.944Z,61.8
2019-05-17T18:37:26.254Z,62.7
2019-05-17T18:42:32.572Z,63.4
2019-05-17T18:47:32.513Z,64.3
2019-05-17T18:52:32.434Z,64.5
2019-05-17T18:57:32.502Z,64.9
2019-05-17T19:02:32.466Z,65.6
2019-05-17T19:07:32.504Z,66.2
2019-05-17T19:12:32.487Z,66
2019-05-17T19:17:32.596Z,65.4
2019-05-17T19:22:32.744Z,66
2019-05-17T19:27:32.573Z,66.4
2019-05-17T19:32:32.587Z,67.4
2019-05-17T19:37:32.484Z,68.6
2019-05-17T19:42:36.101Z,69.4
2019-05-17T19:47:36.875Z,70.2
2019-05-17T19:52:36.945Z,70.9
2019-05-17T19:57:36.893Z,71.1
2019-05-17T20:02:36.888Z,71.7
2019-05-17T20:07:39.124Z,72
2019-05-17T20:12:36.898Z,72.5
2019-05-17T20:17:36.926Z,72.7
2019-05-17T20:22:37.831Z,72.9
2019-05-17T20:27:37.826Z,73.1
2019-05-17T20:32:37.862Z,73.3
2019-05-17T20:37:37.957Z,73.4
2019-05-17T20:42:37.962Z,73.6
2019-05-17T20:47:37.971Z,73.4
2019-05-17T20:52:37.865Z,73.4
2019-05-17T20:57:38.069Z,73.4
2019-05-17T21:02:37.899Z,73.6
2019-05-17T21:07:37.833Z,74
2019-05-17T21:12:38.307Z,73.9
2019-05-17T21:17:38.137Z,74.2
2019-05-17T21:22:38.529Z,74.9
2019-05-17T21:27:38.483Z,75.2
2019-05-17T21:32:38.504Z,75.5
2019-05-17T21:37:38.356Z,75.6
2019-05-17T21:42:38.386Z,75.8
2019-05-17T21:47:38.324Z,76.2
2019-05-17T21:52:38.701Z,76.7
2019-05-17T21:57:38.412Z,76.9
2019-05-17T22:02:38.859Z,77
2019-05-17T22:07:38.856Z,77.2
2019-05-17T22:12:38.901Z,77.4
2019-05-17T22:17:38.868Z,77.5
2019-05-17T22:22:38.877Z,77.8
2019-05-17T22:27:38.897Z,77.9
2019-05-17T22:32:38.883Z,78.2
2019-05-17T22:37:39.033Z,78.1
2019-05-17T22:42:39.706Z,77.8
2019-05-17T22:47:38.886Z,78.4
2019-05-17T22:52:38.848Z,78.6
2019-05-17T22:57:38.852Z,78.8
2019-05-17T23:02:38.942Z,79.2
2019-05-17T23:07:38.877Z,79.5
2019-05-17T23:12:38.897Z,79.9
2019-05-17T23:17:38.907Z,80.1
2019-05-17T23:22:46.945Z,80.2
2019-05-17T23:27:38.851Z,80.3
2019-05-17T23:32:38.910Z,80.5
2019-05-17T23:37:38.933Z,80.5
2019-05-17T23:42:38.891Z,80.7
2019-05-17T23:47:39.004Z,80.8
2019-05-17T23:52:39.049Z,80.8
2019-05-17T23:57:38.870Z,80.7
